createdAt,value
2018-05-16T00:00:28.321Z,99.90
2018-05-16T00:03:03.669Z,99.90
2018-05-16T00:05:38.903Z,99.90
2018-05-16T00:08:14.166Z,99.90
2018-05-16T00:10:49.300Z,99.90
2018-05-16T00:13:25.384Z,99.90
2018-05-16T00:16:01.296Z,99.90
2018-05-16T00:18:37.159Z,99.90
2018-05-16T00:21:13.089Z,99.90
2018-05-16T00:23:48.984Z,99.90
2018-05-16T00:26:25.001Z,99.90
2018-05-16T00:29:00.172Z,99.90
2018-05-16T00:31:35.306Z,99.90
2018-05-16T00:34:10.477Z,99.90
2018-05-16T00:36:45.629Z,99.90
2018-05-16T00:39:21.539Z,99.90
2018-05-16T00:41:57.490Z,99.90
2018-05-16T00:44:32.621Z,99.90
2018-05-16T00:47:07.882Z,99.90
2018-05-16T00:49:43.829Z,99.90
2018-05-16T00:52:18.997Z,99.90
2018-05-16T00:54:54.136Z,99.90
2018-05-16T00:57:30.021Z,99.90
2018-05-16T01:00:06.002Z,99.90
2018-05-16T01:02:41.243Z,99.90
2018-05-16T01:05:17.271Z,99.90
2018-05-16T01:07:53.252Z,99.90
2018-05-16T01:10:28.491Z,99.90
2018-05-16T01:13:03.629Z,99.90
2018-05-16T01:15:39.615Z,99.90
2018-05-16T01:18:14.918Z,99.90
2018-05-16T01:20:50.905Z,99.90
2018-05-16T01:23:26.007Z,99.90
2018-05-16T01:26:01.324Z,99.90
2018-05-16T01:28:36.569Z,99.90
2018-05-16T01:31:12.456Z,99.90
2018-05-16T01:33:48.549Z,99.90
2018-05-16T01:36:24.781Z,99.90
2018-05-16T01:39:00.010Z,99.90
2018-05-16T01:41:35.381Z,99.90
2018-05-16T01:44:10.505Z,99.90
2018-05-16T01:46:45.823Z,99.90
2018-05-16T01:49:21.865Z,99.90
2018-05-16T01:51:57.046Z,99.90
2018-05-16T01:54:32.162Z,99.90
2018-05-16T01:57:08.124Z,99.90
2018-05-16T01:59:43.305Z,99.90
2018-05-16T02:02:18.476Z,99.90
2018-05-16T02:04:53.628Z,99.90
2018-05-16T02:07:29.591Z,99.90
2018-05-16T02:10:04.830Z,99.90
2018-05-16T02:12:40.013Z,99.90
2018-05-16T02:15:15.942Z,99.90
2018-05-16T02:17:51.038Z,99.90
2018-05-16T02:20:26.200Z,99.90
2018-05-16T02:23:01.533Z,99.90
2018-05-16T02:25:36.882Z,99.90
2018-05-16T02:28:12.099Z,99.90
2018-05-16T02:30:47.232Z,99.90
2018-05-16T02:33:22.348Z,99.90
2018-05-16T02:35:57.629Z,99.90
2018-05-16T02:38:32.768Z,99.90
2018-05-16T02:41:07.986Z,99.90
2018-05-16T02:43:43.228Z,99.90
2018-05-16T02:46:18.487Z,99.90
2018-05-16T02:48:53.708Z,99.90
2018-05-16T02:51:28.925Z,99.90
2018-05-16T02:54:04.061Z,99.90
2018-05-16T02:56:39.979Z,99.90
2018-05-16T02:59:15.130Z,99.90
2018-05-16T03:01:50.277Z,99.90
2018-05-16T03:04:25.464Z,99.90
2018-05-16T03:07:00.703Z,99.90
2018-05-16T03:09:36.613Z,99.90
2018-05-16T03:12:11.808Z,99.90
2018-05-16T03:14:47.696Z,99.90
2018-05-16T03:17:22.833Z,99.90
2018-05-16T03:19:58.169Z,99.90
2018-05-16T03:22:33.411Z,99.90
2018-05-16T03:25:08.574Z,99.90
2018-05-16T03:27:43.732Z,99.90
2018-05-16T03:30:19.913Z,99.90
2018-05-16T03:32:55.081Z,99.90
2018-05-16T03:35:31.030Z,99.90
2018-05-16T03:38:06.170Z,99.90
2018-05-16T03:40:41.315Z,99.90
2018-05-16T03:43:16.455Z,99.90
2018-05-16T03:45:52.418Z,99.90
2018-05-16T03:48:28.354Z,99.90
2018-05-16T03:51:03.488Z,99.90
2018-05-16T03:53:39.440Z,99.90
2018-05-16T03:56:15.399Z,99.90
2018-05-16T03:59:08.320Z,99.90
2018-05-16T04:02:02.131Z,99.90
2018-05-16T04:04:37.390Z,99.90
2018-05-16T04:07:12.553Z,99.90
2018-05-16T04:09:47.874Z,99.90
2018-05-16T04:12:23.056Z,99.90
2018-05-16T04:14:58.179Z,99.90
2018-05-16T04:17:33.411Z,99.90
2018-05-16T04:20:09.378Z,99.90
2018-05-16T04:22:44.473Z,99.90
2018-05-16T04:25:19.677Z,99.90
2018-05-16T04:27:54.834Z,99.90
2018-05-16T04:30:30.085Z,99.90
2018-05-16T04:33:05.951Z,99.90
2018-05-16T04:35:41.183Z,99.90
2018-05-16T04:38:16.228Z,99.90
2018-05-16T04:40:51.565Z,99.90
2018-05-16T04:43:27.484Z,99.90
2018-05-16T04:46:02.609Z,99.90
2018-05-16T04:48:37.765Z,99.90
2018-05-16T04:51:12.851Z,99.90
2018-05-16T04:53:48.063Z,99.90
2018-05-16T04:56:23.345Z,99.90
2018-05-16T04:58:58.528Z,99.90
2018-05-16T05:01:33.809Z,99.90
2018-05-16T05:04:09.074Z,99.90
2018-05-16T05:06:44.276Z,99.90
2018-05-16T05:09:19.601Z,99.90
2018-05-16T05:11:55.037Z,99.90
2018-05-16T05:14:30.294Z,99.90
2018-05-16T05:17:05.506Z,99.90
2018-05-16T05:19:41.489Z,99.90
2018-05-16T05:22:17.364Z,99.90
2018-05-16T05:24:53.247Z,99.90
2018-05-16T05:27:29.207Z,99.90
2018-05-16T05:30:04.296Z,99.90
2018-05-16T05:32:39.499Z,99.90
2018-05-16T05:35:15.469Z,99.90
2018-05-16T05:37:50.648Z,99.90
2018-05-16T05:40:25.861Z,99.90
2018-05-16T05:43:01.088Z,99.90
2018-05-16T05:45:36.193Z,99.90
2018-05-16T05:48:11.505Z,99.90
2018-05-16T05:50:47.587Z,99.90
2018-05-16T05:53:22.816Z,99.90
2018-05-16T05:55:57.939Z,99.90
2018-05-16T05:58:33.177Z,99.90
2018-05-16T06:01:08.393Z,99.90
2018-05-16T06:03:43.658Z,99.90
2018-05-16T06:06:18.798Z,99.90
2018-05-16T06:08:53.958Z,99.90
2018-05-16T06:11:29.135Z,99.10
2018-05-16T06:14:04.404Z,98.60
2018-05-16T06:16:39.716Z,94.20
2018-05-16T06:19:14.964Z,91.30
2018-05-16T06:21:50.205Z,88.70
2018-05-16T06:24:25.448Z,84.80
2018-05-16T06:27:00.747Z,79.30
2018-05-16T06:29:36.678Z,79.00
2018-05-16T06:32:11.901Z,79.30
2018-05-16T06:34:47.238Z,81.00
2018-05-16T06:37:22.589Z,78.90
2018-05-16T06:39:58.001Z,79.30
2018-05-16T06:42:33.139Z,81.50
2018-05-16T06:45:09.023Z,80.80
2018-05-16T06:47:44.878Z,79.80
2018-05-16T06:50:20.829Z,77.40
2018-05-16T06:52:56.025Z,77.40
2018-05-16T06:55:31.309Z,78.40
2018-05-16T06:58:06.656Z,76.80
2018-05-16T07:00:42.003Z,71.90
2018-05-16T07:03:17.042Z,70.00
2018-05-16T07:05:52.114Z,66.90
2018-05-16T07:08:27.457Z,64.30
2018-05-16T07:11:02.747Z,62.00
2018-05-16T07:13:38.074Z,59.30
2018-05-16T07:16:13.097Z,57.70
2018-05-16T07:18:48.393Z,57.50
2018-05-16T07:21:23.520Z,59.10
2018-05-16T07:23:58.635Z,57.30
2018-05-16T07:26:33.748Z,56.90
2018-05-16T07:29:09.005Z,58.20
2018-05-16T07:31:44.268Z,53.90
2018-05-16T07:34:19.528Z,52.60
2018-05-16T07:36:55.543Z,53.60
2018-05-16T07:39:31.413Z,51.70
2018-05-16T07:42:06.737Z,51.70
2018-05-16T07:44:41.896Z,50.60
2018-05-16T07:47:17.052Z,52.30
2018-05-16T07:49:52.293Z,49.90
2018-05-16T07:52:27.589Z,51.20
2018-05-16T07:55:02.648Z,51.90
2018-05-16T07:57:38.703Z,54.20
2018-05-16T08:00:13.827Z,54.10
2018-05-16T08:02:49.681Z,55.10
2018-05-16T08:05:25.724Z,52.00
2018-05-16T08:08:00.969Z,51.90
2018-05-16T08:10:36.276Z,53.40
2018-05-16T08:13:11.393Z,53.60
2018-05-16T08:15:47.361Z,55.60
2018-05-16T08:18:22.608Z,55.50
2018-05-16T08:20:57.845Z,56.50
2018-05-16T08:23:33.758Z,58.10
2018-05-16T08:26:09.630Z,59.40
2018-05-16T08:28:45.557Z,59.10
2018-05-16T08:31:21.520Z,59.60
2018-05-16T08:33:56.659Z,59.60
2018-05-16T08:36:31.916Z,56.90
2018-05-16T08:39:07.976Z,52.90
2018-05-16T08:41:43.067Z,52.90
2018-05-16T08:44:18.419Z,54.60
2018-05-16T08:46:53.578Z,54.50
2018-05-16T08:49:28.869Z,54.90
2018-05-16T08:52:03.953Z,52.80
2018-05-16T08:54:39.168Z,53.30
2018-05-16T08:57:14.419Z,52.80
2018-05-16T08:59:49.734Z,53.40
2018-05-16T09:02:25.625Z,51.60
2018-05-16T09:05:00.780Z,51.70
2018-05-16T09:07:36.025Z,52.30
2018-05-16T09:10:11.984Z,50.70
2018-05-16T09:12:47.195Z,50.60
2018-05-16T09:15:22.538Z,51.60
2018-05-16T09:17:57.813Z,51.10
2018-05-16T09:20:33.082Z,51.50
2018-05-16T09:23:09.080Z,51.70
2018-05-16T09:25:44.271Z,51.60
2018-05-16T09:28:19.684Z,49.60
2018-05-16T09:30:54.897Z,47.30
2018-05-16T09:33:30.204Z,48.70
2018-05-16T09:36:05.510Z,45.20
2018-05-16T09:38:40.640Z,45.70
2018-05-16T09:41:15.829Z,43.90
2018-05-16T09:43:51.744Z,44.10
2018-05-16T09:46:27.789Z,44.10
2018-05-16T09:49:03.075Z,43.80
2018-05-16T09:51:38.993Z,45.20
2018-05-16T09:54:14.181Z,45.20
2018-05-16T09:56:49.465Z,45.80
2018-05-16T09:59:24.855Z,46.30
2018-05-16T10:02:00.170Z,46.40
2018-05-16T10:04:35.475Z,45.40
2018-05-16T10:07:11.551Z,46.30
2018-05-16T10:09:46.805Z,46.30
2018-05-16T10:12:22.006Z,44.00
2018-05-16T10:14:57.359Z,44.60
2018-05-16T10:17:32.536Z,42.00
2018-05-16T10:20:07.819Z,40.40
2018-05-16T10:22:43.025Z,41.80
2018-05-16T10:25:18.244Z,40.30
2018-05-16T10:27:53.495Z,40.60
2018-05-16T10:30:28.613Z,41.00
2018-05-16T10:33:03.881Z,38.40
2018-05-16T10:35:39.188Z,39.40
2018-05-16T10:38:14.303Z,38.70
2018-05-16T10:40:49.526Z,39.30
2018-05-16T10:43:24.843Z,39.10
2018-05-16T10:45:59.920Z,38.50
2018-05-16T10:48:35.160Z,38.00
2018-05-16T10:51:10.429Z,38.20
2018-05-16T10:53:46.330Z,38.60
2018-05-16T10:56:21.522Z,38.60
2018-05-16T10:58:56.715Z,39.10
2018-05-16T11:01:32.615Z,39.30
2018-05-16T11:04:07.784Z,39.20
2018-05-16T11:06:43.786Z,38.50
2018-05-16T11:09:19.733Z,39.60
2018-05-16T11:11:54.896Z,39.50
2018-05-16T11:14:30.869Z,37.80
2018-05-16T11:17:06.808Z,37.90
2018-05-16T11:19:41.938Z,37.90
2018-05-16T11:22:17.151Z,37.20
2018-05-16T11:24:52.287Z,36.50
2018-05-16T11:27:28.408Z,36.40
2018-05-16T11:30:03.671Z,36.40
2018-05-16T11:32:38.933Z,37.40
2018-05-16T11:35:14.086Z,36.70
2018-05-16T11:37:49.245Z,38.60
2018-05-16T11:40:24.533Z,37.60
2018-05-16T11:42:59.836Z,37.30
2018-05-16T11:45:35.725Z,37.40
2018-05-16T11:48:10.985Z,37.40
2018-05-16T11:50:46.163Z,38.60
2018-05-16T11:53:22.106Z,35.30
2018-05-16T11:55:57.212Z,35.30
2018-05-16T11:58:32.642Z,36.40
2018-05-16T12:01:07.839Z,35.30
2018-05-16T12:03:43.082Z,35.60
2018-05-16T12:06:18.245Z,35.10
2018-05-16T12:08:53.362Z,34.00
2018-05-16T12:11:29.296Z,35.00
2018-05-16T12:14:04.371Z,35.00
2018-05-16T12:16:40.278Z,36.40
2018-05-16T12:19:15.469Z,36.40
2018-05-16T12:21:51.340Z,36.60
2018-05-16T12:24:26.651Z,36.60
2018-05-16T12:27:02.713Z,37.80
2018-05-16T12:29:37.892Z,37.90
2018-05-16T12:32:13.066Z,38.60
2018-05-16T12:34:48.161Z,40.60
2018-05-16T12:37:23.532Z,42.60
2018-05-16T12:39:58.626Z,41.10
2018-05-16T12:42:34.002Z,42.40
2018-05-16T12:45:09.248Z,41.50
2018-05-16T12:47:44.366Z,42.30
2018-05-16T12:50:19.539Z,42.90
2018-05-16T12:52:55.508Z,43.30
2018-05-16T12:55:30.781Z,43.40
2018-05-16T12:58:06.069Z,41.00
2018-05-16T13:00:41.397Z,41.00
2018-05-16T13:03:16.672Z,39.80
2018-05-16T13:05:52.062Z,40.10
2018-05-16T13:08:27.248Z,41.40
2018-05-16T13:11:03.281Z,44.20
2018-05-16T13:13:38.545Z,44.20
2018-05-16T13:16:13.820Z,43.30
2018-05-16T13:18:49.089Z,41.40
2018-05-16T13:21:24.436Z,38.80
2018-05-16T13:23:59.690Z,38.30
2018-05-16T13:26:35.000Z,38.80
2018-05-16T13:29:10.861Z,37.10
2018-05-16T13:31:46.860Z,36.20
2018-05-16T13:34:22.115Z,36.30
2018-05-16T13:36:58.211Z,36.50
2018-05-16T13:39:33.502Z,36.20
2018-05-16T13:42:09.403Z,39.40
2018-05-16T13:44:44.524Z,39.40
2018-05-16T13:47:20.462Z,40.00
2018-05-16T13:49:56.397Z,39.60
2018-05-16T13:52:31.579Z,39.60
2018-05-16T13:55:07.690Z,39.20
2018-05-16T13:57:42.876Z,39.10
2018-05-16T14:00:18.174Z,38.80
2018-05-16T14:02:53.471Z,40.40
2018-05-16T14:05:28.840Z,43.70
2018-05-16T14:08:04.044Z,45.90
2018-05-16T14:10:39.284Z,48.60
2018-05-16T14:13:15.352Z,53.20
2018-05-16T14:15:50.612Z,53.20
2018-05-16T14:18:26.471Z,55.20
2018-05-16T14:21:01.631Z,55.20
2018-05-16T14:23:36.833Z,56.40
2018-05-16T14:26:12.081Z,57.90
2018-05-16T14:28:48.117Z,63.30
2018-05-16T14:31:23.218Z,63.20
2018-05-16T14:33:59.233Z,63.00
2018-05-16T14:36:34.365Z,63.00
2018-05-16T14:39:09.550Z,61.70
2018-05-16T14:41:44.690Z,62.40
2018-05-16T14:44:19.850Z,62.70
2018-05-16T14:46:55.036Z,62.30
2018-05-16T14:49:30.154Z,64.30
2018-05-16T14:52:06.111Z,67.70
2018-05-16T14:54:41.319Z,67.70
2018-05-16T14:57:16.541Z,71.20
2018-05-16T14:59:51.955Z,70.50
2018-05-16T15:02:27.308Z,68.60
2018-05-16T15:05:02.546Z,70.40
2018-05-16T15:07:37.684Z,68.80
2018-05-16T15:10:13.616Z,64.50
2018-05-16T15:12:48.747Z,64.40
2018-05-16T15:15:23.915Z,59.70
2018-05-16T15:17:59.164Z,59.10
2018-05-16T15:20:34.432Z,58.90
2018-05-16T15:23:09.859Z,58.90
2018-05-16T15:25:45.115Z,58.40
2018-05-16T15:28:20.369Z,55.80
2018-05-16T15:30:56.468Z,54.90
2018-05-16T15:33:31.767Z,54.90
2018-05-16T15:36:08.076Z,55.30
2018-05-16T15:38:44.085Z,54.90
2018-05-16T15:41:19.953Z,54.50
2018-05-16T15:43:55.272Z,54.50
2018-05-16T15:46:31.290Z,52.30
2018-05-16T15:49:07.305Z,51.20
2018-05-16T15:51:42.469Z,51.30
2018-05-16T15:54:17.740Z,51.40
2018-05-16T15:56:53.833Z,50.60
2018-05-16T15:59:28.978Z,50.50
2018-05-16T16:02:04.173Z,51.10
2018-05-16T16:04:39.355Z,51.10
2018-05-16T16:07:14.574Z,50.40
2018-05-16T16:09:49.860Z,49.90
2018-05-16T16:12:25.108Z,48.20
2018-05-16T16:15:00.235Z,48.80
2018-05-16T16:17:36.410Z,48.70
2018-05-16T16:20:11.536Z,48.70
2018-05-16T16:22:46.870Z,47.80
2018-05-16T16:25:22.201Z,47.70
2018-05-16T16:27:57.500Z,48.20
2018-05-16T16:30:32.746Z,49.10
2018-05-16T16:33:08.016Z,48.60
2018-05-16T16:35:43.273Z,48.30
2018-05-16T16:38:18.570Z,49.30
2018-05-16T16:40:53.642Z,49.30
2018-05-16T16:43:29.425Z,49.80
2018-05-16T16:46:05.344Z,49.50
2018-05-16T16:48:40.477Z,49.50
2018-05-16T16:51:15.689Z,48.10
2018-05-16T16:53:51.690Z,48.40
2018-05-16T16:56:27.661Z,48.70
2018-05-16T16:59:02.984Z,48.80
2018-05-16T17:01:38.242Z,49.20
2018-05-16T17:04:16.175Z,49.20
2018-05-16T17:06:51.260Z,49.50
2018-05-16T17:09:26.502Z,49.60
2018-05-16T17:12:01.583Z,49.90
2018-05-16T17:14:36.857Z,50.00
2018-05-16T17:17:12.193Z,50.80
2018-05-16T17:19:47.910Z,51.40
2018-05-16T17:22:23.201Z,50.20
2018-05-16T17:24:58.518Z,51.30
2018-05-16T17:27:34.947Z,51.00
2018-05-16T17:30:10.929Z,51.90
2018-05-16T17:32:46.189Z,51.90
2018-05-16T17:35:22.148Z,52.30
2018-05-16T17:37:57.411Z,52.20
2018-05-16T17:40:32.634Z,52.20
2018-05-16T17:43:07.976Z,52.60
2018-05-16T17:45:43.175Z,52.70
2018-05-16T17:48:18.606Z,52.90
2018-05-16T17:50:53.859Z,53.10
2018-05-16T17:53:29.869Z,54.00
2018-05-16T17:56:04.995Z,54.00
2018-05-16T17:58:40.841Z,53.50
2018-05-16T18:01:16.722Z,53.90
2018-05-16T18:03:52.257Z,53.90
2018-05-16T18:06:28.286Z,54.30
2018-05-16T18:09:03.531Z,54.10
2018-05-16T18:11:38.682Z,54.00
2018-05-16T18:14:31.842Z,54.10
2018-05-16T18:17:25.332Z,54.20
2018-05-16T18:20:01.294Z,55.00
2018-05-16T18:22:36.673Z,55.30
2018-05-16T18:25:11.817Z,55.40
2018-05-16T18:27:47.052Z,55.40
2018-05-16T18:30:23.018Z,55.20
2018-05-16T18:32:58.207Z,55.30
2018-05-16T18:35:34.063Z,55.20
2018-05-16T18:38:10.086Z,55.00
2018-05-16T18:40:45.215Z,55.00
2018-05-16T18:43:21.657Z,54.90
2018-05-16T18:45:57.705Z,56.00
2018-05-16T18:48:33.714Z,55.60
2018-05-16T18:51:08.895Z,55.60
2018-05-16T18:53:44.907Z,55.90
2018-05-16T18:56:20.167Z,56.00
2018-05-16T18:58:55.601Z,55.80
2018-05-16T19:01:30.800Z,56.10
2018-05-16T19:04:06.037Z,57.40
2018-05-16T19:06:41.297Z,57.20
2018-05-16T19:09:16.512Z,57.90
2018-05-16T19:11:51.825Z,59.00
2018-05-16T19:14:27.146Z,59.40
2018-05-16T19:17:02.299Z,59.10
2018-05-16T19:19:37.576Z,60.60
2018-05-16T19:22:12.756Z,61.20
2018-05-16T19:24:48.724Z,61.30
2018-05-16T19:27:23.959Z,61.10
2018-05-16T19:29:59.120Z,61.00
2018-05-16T19:32:34.981Z,61.90
2018-05-16T19:35:10.292Z,62.00
2018-05-16T19:37:45.535Z,62.20
2018-05-16T19:40:20.683Z,61.70
2018-05-16T19:42:55.808Z,62.00
2018-05-16T19:45:30.893Z,62.10
2018-05-16T19:48:06.122Z,63.20
2018-05-16T19:50:42.404Z,65.80
2018-05-16T19:53:17.866Z,67.40
2018-05-16T19:55:53.179Z,68.20
2018-05-16T19:58:29.349Z,70.10
2018-05-16T20:01:04.568Z,70.30
2018-05-16T20:03:39.898Z,69.80
2018-05-16T20:06:15.847Z,71.20
2018-05-16T20:08:50.959Z,69.70
2018-05-16T20:11:26.225Z,70.00
2018-05-16T20:14:01.390Z,70.10
2018-05-16T20:16:36.534Z,71.20
2018-05-16T20:19:11.773Z,71.30
2018-05-16T20:21:47.046Z,71.60
2018-05-16T20:24:22.230Z,73.00
2018-05-16T20:26:57.528Z,75.00
2018-05-16T20:29:33.016Z,73.00
2018-05-16T20:32:08.281Z,71.70
2018-05-16T20:34:43.567Z,71.40
2018-05-16T20:37:18.827Z,72.10
2018-05-16T20:39:54.272Z,71.10
2018-05-16T20:42:29.396Z,71.50
2018-05-16T20:45:04.666Z,70.80
2018-05-16T20:47:40.782Z,72.70
2018-05-16T20:50:16.002Z,72.60
2018-05-16T20:52:51.255Z,73.80
2018-05-16T20:55:27.199Z,70.70
2018-05-16T20:58:02.565Z,70.80
2018-05-16T21:00:37.851Z,69.80
2018-05-16T21:03:13.906Z,68.70
2018-05-16T21:05:49.265Z,68.70
2018-05-16T21:08:24.376Z,68.70
2018-05-16T21:10:59.652Z,68.40
2018-05-16T21:13:35.572Z,66.90
2018-05-16T21:16:10.754Z,66.90
2018-05-16T21:18:45.981Z,67.50
2018-05-16T21:21:21.247Z,68.30
2018-05-16T21:23:56.419Z,67.90
2018-05-16T21:26:32.471Z,68.50
2018-05-16T21:29:07.775Z,68.40
2018-05-16T21:31:42.927Z,67.90
2018-05-16T21:34:18.208Z,67.70
2018-05-16T21:36:53.328Z,67.50
2018-05-16T21:39:29.313Z,67.80
2018-05-16T21:42:04.433Z,67.80
2018-05-16T21:44:39.743Z,67.80
2018-05-16T21:47:14.932Z,67.90
2018-05-16T21:49:50.038Z,67.80
2018-05-16T21:52:26.027Z,70.70
2018-05-16T21:55:02.013Z,71.60
2018-05-16T21:57:37.133Z,71.60
2018-05-16T22:00:13.073Z,73.00
2018-05-16T22:02:48.213Z,73.00
2018-05-16T22:05:23.453Z,73.70
2018-05-16T22:07:59.516Z,80.30
2018-05-16T22:10:35.416Z,81.80
2018-05-16T22:13:10.576Z,81.80
2018-05-16T22:15:46.568Z,85.10
2018-05-16T22:18:21.700Z,85.10
2018-05-16T22:20:56.800Z,85.80
2018-05-16T22:23:31.890Z,86.40
2018-05-16T22:26:07.857Z,90.60
2018-05-16T22:28:42.983Z,90.60
2018-05-16T22:31:23.552Z,92.60
2018-05-16T22:34:04.107Z,92.00
2018-05-16T22:36:45.675Z,97.00
2018-05-16T22:39:27.370Z,97.10
2018-05-16T22:42:07.934Z,94.50
2018-05-16T22:44:44.431Z,97.00
2018-05-16T22:47:19.552Z,96.40
2018-05-16T22:49:54.809Z,95.10
2018-05-16T22:52:30.509Z,97.10
2018-05-16T22:55:05.833Z,99.80
2018-05-16T22:57:41.012Z,99.50
2018-05-16T23:00:22.697Z,99.90
2018-05-16T23:02:57.851Z,99.60
2018-05-16T23:05:33.830Z,99.90
2018-05-16T23:08:09.822Z,99.70
2018-05-16T23:10:45.805Z,97.10
2018-05-16T23:13:21.017Z,97.10
2018-05-16T23:15:56.161Z,96.50
2018-05-16T23:18:31.447Z,97.30
2018-05-16T23:21:06.659Z,96.60
2018-05-16T23:23:42.515Z,98.50
2018-05-16T23:26:17.661Z,98.50
2018-05-16T23:28:53.591Z,96.00
2018-05-16T23:31:28.736Z,95.90
2018-05-16T23:34:04.701Z,94.80
2018-05-16T23:36:40.639Z,96.20
2018-05-16T23:39:16.610Z,98.40
2018-05-16T23:41:51.703Z,98.40
2018-05-16T23:44:26.985Z,98.40
2018-05-16T23:47:02.265Z,98.60
2018-05-16T23:49:37.308Z,98.70
2018-05-16T23:52:12.583Z,92.30
2018-05-16T23:54:47.747Z,93.20
2018-05-16T23:57:22.888Z,93.70
2018-05-16T23:59:58.801Z,96.10
